Tiempo atmosférico en la estación meteorológica de Ontinyent, València/Valencia (350 m.)



Fecha
DESCASC
Temp. máxima en grados centígrados (hora)
DESCASC
Temp. mínima en grados centígrados (hora)
DESCASC
Temp. media en grados centígrados
DESCASC
Racha de viento máxima en m/sg (hora)
DESCASC
Velocidad máxima media en intervalos de 10 minutos(hora)
DESCASC
Precipitaciones diarias en mm
DESCASC
Precipitaciones de 00:00 a 06:00 en mm
DESCASC
Precipitaciones de 06:00 a 12:00 en mm
DESCASC
Precipitaciones de 12:00 a 18:00 en mm
DESCASC
Precipitaciones de 18:00 a 24:00 en mm
DESCASC
19-02-2019 15.1 (14:50) 5.9 (05:50) 10.5 6.11 (14:30) 2.78 (15:30) 0 0 0 0 0
18-02-2019 14.4 (15:50) 5.3 (03:20) 9.8 6.11 (12:30) 2.78 (12:30) 0 0 0 0 0
17-02-2019 14.2 (16:20) 4 (00:00) 9.1 5 (16:00) 1.94 (16:40) 0 0 0 0 0
16-02-2019 14.6 (15:30) 3.8 (00:00) 9.2 6.94 (13:10) 2.78 (16:30) 0 0 0 0 0
15-02-2019 13.1 (13:40) 2.9 (00:00) 8 5.83 (14:30) 2.22 (14:30) 0 0 0 0 0
14-02-2019 14.3 (15:20) 1.8 (00:00) 8.1 5.83 (12:00) 2.22 (12:00) 0 0 0 0 0
13-02-2019 16.4 (15:10) 2.3 (00:00) 9.3 5 (17:10) 2.22 (09:40) 0 0 0 0 0
12-02-2019 15.8 (15:20) 1.2 (00:00) 8.5 4.44 (15:50) 2.22 (16:10) 0 0 0 0 0
11-02-2019 19.4 (12:50) 4.6 (00:00) 12 6.11 (16:30) 2.78 (16:30) 0 0 0 0 0
10-02-2019 18 (14:10) 4.8 (00:00) 11.4 8.89 (08:50) 2.78 (13:10) 0 0 0 0 0
09-02-2019 22.5 (14:50) 3.6 (00:00) 13 5.83 (16:40) 2.22 (16:40) 0 0 0 0 0
08-02-2019 21.5 (15:20) 1.4 (00:00) 11.4 8.06 (14:30) 3.33 (16:40) 0 0 0 0 0
07-02-2019 22 (15:30) 5.9 (00:00) 14 4.72 (11:10) 2.22 (16:40) 0 0 0 0 0
06-02-2019 22.5 (16:20) 5.3 (08:30) 13.9 4.44 (13:20) 1.94 (13:10) 0 0 0 0 0
05-02-2019 19.7 (15:30) 4 (05:50) 11.9 4.44 (12:30) 1.67 (13:00) 0 0 0 0 0
04-02-2019 17.1 (16:10) -0.2 (00:00) 8.5 6.39 (12:20) 2.78 (05:10) 0 0 0 0 0
03-02-2019 11.4 (14:30) 3.2 (00:00) 7.3 10.28 (17:30) 4.44 (12:20) 0 0 0 0 0
02-02-2019 12.7 (14:30) 4.7 (00:00) 8.7 14.72 (02:10) 5.83 (02:10) 0 0 0 0 0
01-02-2019 17 (13:30) 7.7 (00:00) 12.3 13.06 (16:10) 4.72 (15:00) 1 0 1 0 0
31-01-2019 19.2 (14:50) 10.5 (00:00) 14.9 13.06 (14:40) 5.28 (14:40) 0 0 0 0 0
30-01-2019 15.9 (14:20) 8.3 (00:00) 12.1 10.28 (15:00) 3.33 (20:50) 0 0 0 0 0
29-01-2019 16 (15:40) 5.4 (00:00) 10.7 10.28 (11:50) 3.33 (12:30) 0 0 0 0 0
28-01-2019 16.8 (14:50) 4.5 (00:00) 10.6 10.56 (13:30) 3.89 (13:50) 0 0 0 0 0
27-01-2019 18 (12:10) 7.6 (00:00) 12.8 10.28 (14:50) 4.17 (08:30) 0 0 0 0 0
26-01-2019 20.2 (15:50) 4.2 (00:00) 12.2 6.94 (16:10) 2.78 (12:40) 0 0 0 0 0
25-01-2019 19 (14:40) 4.6 (00:00) 11.8 6.39 (14:50) 3.06 (14:50) 0 0 0 0 0
24-01-2019 14.2 (13:20) 10.6 (00:00) 12.4 12.78 (01:10) 3.89 (01:10) 0 0 0 0 0

Gráficas

Temp. máximas Temp. mínimas Temp. medias Precipitaciones Rachas de viento máximas Velocidades máximas media en intervalos de 10 minutos

Datos horarios

Fecha y hora oficial Temperatura (ºC) Velocidad del viento (km/h) Dirección del viento Racha (km/h) Dirección de racha Precipitación (mm) Presión (hPa) Tendencia (hPa) Humedad (%)
2019-02-22 23:00:00 10 3 Sudoeste 13 Sudoeste 0 -- -- 53
2019-02-22 22:00:00 9.6 0 Calma 9 Sudoeste 0 -- -- 50
2019-02-22 21:00:00 9.7 0 Calma 3 Sur 0 -- -- 44
2019-02-22 20:00:00 11.9 0 Calma 3 Noroeste 0 -- -- 36
2019-02-22 19:00:00 15.3 3 Oeste 9 Noroeste 0 -- -- 31
2019-02-22 18:00:00 19.4 0 Calma 3 Nordeste 0 -- -- 22
2019-02-22 17:00:00 21.2 2 Este 10 Este 0 -- -- 17
2019-02-22 16:00:00 21.9 3 Este 14 Este 0 -- -- 15
2019-02-22 15:00:00 21.3 5 Nordeste 15 Sudeste 0 -- -- 18
2019-02-22 14:00:00 20.9 7 Nordeste 14 Este 0 -- -- 26
2019-02-22 13:00:00 20.4 4 Nordeste 9 Nordeste 0 -- -- 28
2019-02-22 12:00:00 19 4 Este 9 Este 0 -- -- 32
2019-02-22 11:00:00 17 3 Sur 8 Sur 0 -- -- 34
2019-02-22 10:00:00 11.8 2 Sudoeste 9 Sur 0 -- -- 50
2019-02-22 09:00:00 5.7 0 Calma 6 Sudoeste 0 -- -- 70
2019-02-22 08:00:00 3.2 2 Oeste 6 Sur 0 -- -- 84
2019-02-22 07:00:00 3.2 0 Calma 6 Sur 0 -- -- 88
2019-02-22 06:00:00 3.3 3 Oeste 5 Sudoeste 0 -- -- 91
2019-02-22 05:00:00 3.5 0 Calma 4 Oeste 0 -- -- 92
2019-02-22 04:00:00 3.6 3 Oeste 6 Sudoeste 0 -- -- 92
2019-02-22 03:00:00 3.7 0 Calma 6 Oeste 0 -- -- 93
2019-02-22 02:00:00 3.7 0 Calma 3 Noroeste 0 -- -- 93
2019-02-22 01:00:00 4 0 Calma 5 Oeste 0 -- -- 91
2019-02-22 00:00:00 4 0 Calma 4 Sudoeste 0 -- -- 91
2019-02-21 23:00:00 4.6 0 Calma 2 Oeste 0 -- -- 88
2019-02-21 22:00:00 6 0 Calma 2 Sudoeste 0 -- -- 83
2019-02-21 21:00:00 7.8 0 Calma 2 Oeste 0 -- -- 79
2019-02-21 20:00:00 10.2 0 Calma 4 Noroeste 0 -- -- 77
2019-02-21 19:00:00 12.5 3 Norte 9 Nordeste 0 -- -- 69
2019-02-21 18:00:00 15.1 4 Este 13 Este 0 -- -- 51
2019-02-21 17:00:00 16.2 5 Nordeste 13 Este 0 -- -- 49
2019-02-21 16:00:00 16.6 3 Este 12 Nordeste 0 -- -- 49
2019-02-21 15:00:00 16.2 5 Este 14 Este 0 -- -- 49
2019-02-21 14:00:00 15.6 5 Este 13 Nordeste 0 -- -- 45
2019-02-21 13:00:00 14.7 4 Nordeste 12 Nordeste 0 -- -- 52
2019-02-21 12:00:00 13.7 4 Nordeste 12 Este 0 -- -- 58
2019-02-21 11:00:00 11.6 3 Sur 11 Sudoeste 0 -- -- 68
2019-02-21 10:00:00 7.6 3 Sudoeste 13 Sur 0 -- -- 87
2019-02-21 09:00:00 3.2 3 Sudoeste 9 Sudoeste 0 -- -- 98
2019-02-21 08:00:00 1.5 0 Calma 6 Oeste 0 -- -- 98
2019-02-21 07:00:00 1.7 2 Oeste 5 Oeste 0 -- -- 98
2019-02-21 06:00:00 1.9 0 Calma 4 Sudoeste 0 -- -- 98
2019-02-21 05:00:00 1.8 0 Calma 5 Sudoeste 0 -- -- 97
2019-02-21 04:00:00 2.2 0 Calma 2 Oeste 0 -- -- 97
2019-02-21 03:00:00 2.8 0 Calma 3 Sudoeste 0 -- -- 96
2019-02-21 02:00:00 3.7 0 Calma 4 Noroeste 0 -- -- 96
2019-02-21 01:00:00 4 0 Calma 5 Sudoeste 0 -- -- 95
2019-02-21 00:00:00 4.1 0 Calma 3 Oeste 0 -- -- 95
2019-02-20 23:00:00 5 0 Calma 2 Oeste 0 -- -- 93
2019-02-20 22:00:00 6.4 0 Calma 2 Noroeste 0 -- -- 90
2019-02-20 21:00:00 7.8 0 Calma 4 Nordeste 0 -- -- 88
2019-02-20 20:00:00 9.3 0 Calma 9 Nordeste 0 -- -- 85
2019-02-20 19:00:00 10.8 4 Norte 12 Norte 0 -- -- 78
2019-02-20 18:00:00 13.3 5 Nordeste 17 Este 0 -- -- 66
2019-02-20 17:00:00 15.3 5 Este 15 Este 0 -- -- 51
2019-02-20 16:00:00 16.2 5 Este 14 Este 0 -- -- 43
2019-02-20 15:00:00 15.7 4 Este 13 Este 0 -- -- 49
2019-02-20 14:00:00 15.1 4 Este 11 Este 0 -- -- 49
2019-02-20 13:00:00 14.1 4 Norte 12 Nordeste 0 -- -- 58
2019-02-20 12:00:00 14 3 Sudeste -- -- -- -- -- 57
2019-02-20 11:00:00 -- -- -- -- -- -- -- -- --
2019-02-20 10:00:00 9.1 5 Sudoeste 13 Sudoeste 0 -- -- 78
2019-02-20 09:00:00 4.4 0 Calma 6 Sudoeste 0 -- -- 95
2019-02-20 08:00:00 3.3 0 Calma 4 Oeste 0 -- -- 95
2019-02-20 07:00:00 4.3 0 Calma 3 Sudoeste 0 -- -- 94
2019-02-20 06:00:00 5.8 0 Calma 2 Noroeste 0 -- -- 93
2019-02-20 05:00:00 5.9 0 Calma 5 Noroeste 0 -- -- 94
2019-02-20 04:00:00 5.7 0 Calma 2 Oeste 0 -- -- 93
2019-02-20 03:00:00 6.5 0 Calma 2 Noroeste 0 -- -- 92
2019-02-20 02:00:00 6.9 0 Calma 3 Oeste 0 -- -- 92
2019-02-20 01:00:00 7.2 0 Calma 3 Noroeste 0 -- -- 91
2019-02-20 00:00:00 7.8 0 Calma 2 Noroeste 0 -- -- 92
2019-02-19 23:00:00 7.5 0 Calma 2 Norte 0 -- -- 93
2019-02-19 22:00:00 7.9 0 Calma 0 Calma 0 -- -- 92
2019-02-19 21:00:00 8.5 0 Calma 6 Este 0 -- -- 91
2019-02-19 20:00:00 9.1 0 Calma 8 Nordeste 0 -- -- 89
2019-02-19 19:00:00 10.3 3 Nordeste 12 Nordeste 0 -- -- 83
2019-02-19 18:00:00 12.3 5 Este 16 Este 0 -- -- 73
2019-02-19 17:00:00 13.6 6 Este 22 Sudeste 0 -- -- 64
2019-02-19 16:00:00 14.7 6 Este 20 Sudeste 0 -- -- 58
2019-02-19 15:00:00 15.1 7 Este 22 Sudeste 0 -- -- 56
2019-02-19 14:00:00 14.5 6 Nordeste 16 Sudeste 0 -- -- 58
2019-02-19 13:00:00 13.6 6 Este 15 Este 0 -- -- 64
2019-02-19 12:00:00 13.5 5 Este 13 Sudeste 0 -- -- 64
2019-02-19 11:00:00 12.3 3 Nordeste 11 Sudeste 0 -- -- 66
2019-02-19 10:00:00 9.6 0 Calma 5 Sudoeste 0 -- -- 85
2019-02-19 09:00:00 7.1 0 Calma 4 Noroeste 0 -- -- 91
2019-02-19 08:00:00 6.2 0 Calma 4 Noroeste 0 -- -- 93
2019-02-19 07:00:00 6 0 Calma 4 Noroeste 0 -- -- 93
2019-02-19 06:00:00 6 0 Calma 3 Sudoeste 0 -- -- 94
2019-02-19 05:00:00 6.6 0 Calma 0 Calma 0 -- -- 92
2019-02-19 04:00:00 6.5 0 Calma 2 Noroeste 0 -- -- 95
2019-02-19 03:00:00 6.7 0 Calma 2 Oeste 0 -- -- 94
2019-02-19 02:00:00 7 0 Calma 2 Noroeste 0 -- -- 95
2019-02-19 01:00:00 7.7 0 Calma 3 Este 0 -- -- 94
2019-02-19 00:00:00 8.4 0 Calma 3 Este 0 -- -- 94
2019-02-18 23:00:00 8.8 0 Calma 8 Nordeste 0 -- -- 94
2019-02-18 22:00:00 9.3 3 Este 11 Nordeste 0 -- -- 92
2019-02-18 21:00:00 9.3 2 Este 9 Este 0 -- -- 91
2019-02-18 20:00:00 9.4 3 Nordeste 9 Nordeste 0 -- -- 88
2019-02-18 19:00:00 10.4 4 Este 15 Este 0 -- -- 84
2019-02-18 18:00:00 11.9 6 Este 17 Este 0 -- -- 77
2019-02-18 17:00:00 13 8 Este 21 Sudeste 0 -- -- 70
2019-02-18 16:00:00 14.3 8 Este 22 Este 0 -- -- 64
2019-02-18 15:00:00 14.2 8 Nordeste 17 Este 0 -- -- 66
2019-02-18 14:00:00 14.1 6 Nordeste 18 Este 0 -- -- 65
2019-02-18 13:00:00 12.7 6 Este 22 Sudeste 0 -- -- 71
2019-02-18 12:00:00 11.6 3 Este 10 Sudeste 0 -- -- 74
2019-02-18 11:00:00 10.2 5 Este 11 Sudeste 0 -- -- 77
2019-02-18 10:00:00 9 2 Oeste 5 Sudoeste 0 -- -- 81
2019-02-18 09:00:00 7.2 0 Calma 6 Sudoeste 0 -- -- 89
2019-02-18 08:00:00 6.6 0 Calma 5 Sudoeste 0 -- -- 90
2019-02-18 07:00:00 6.5 0 Calma 4 Oeste 0 -- -- 90
2019-02-18 06:00:00 6.4 0 Calma 3 Noroeste 0 -- -- 90
2019-02-18 05:00:00 6.4 0 Calma 5 Sudoeste 0 -- -- 92
2019-02-18 04:00:00 5.6 0 Calma 4 Noroeste 0 -- -- 95
2019-02-18 03:00:00 5.8 0 Calma 4 Noroeste 0 -- -- 92
2019-02-18 02:00:00 7.2 0 Calma 0 Calma 0 -- -- 93
2019-02-18 01:00:00 7.8 0 Calma 3 Oeste 0 -- -- 95
2019-02-18 00:00:00 7.2 0 Calma 3 Noroeste 0 -- -- 94
2019-02-17 23:00:00 8 0 Calma 4 Sudeste 0 -- -- 91
2019-02-17 22:00:00 9.6 2 Este 4 Este 0 -- -- 91
2019-02-17 21:00:00 9.8 0 Calma 6 Este 0 -- -- 91
2019-02-17 20:00:00 9.8 0 Calma 12 Nordeste 0 -- -- 88
2019-02-17 19:00:00 10.7 3 Nordeste 11 Este 0 -- -- 84
2019-02-17 18:00:00 12 4 Este 14 Sudeste 0 -- -- 75
2019-02-17 17:00:00 13.3 7 Este 15 Sudeste 0 -- -- 68
2019-02-17 16:00:00 13.9 6 Nordeste 18 Nordeste 0 -- -- 65
2019-02-17 15:00:00 13.4 5 Este 15 Este 0 -- -- 66
2019-02-17 14:00:00 11.8 3 Nordeste 11 Este 0 -- -- 71
2019-02-17 13:00:00 12 5 Este 13 Este 0 -- -- 70
2019-02-17 12:00:00 11.4 4 Nordeste 10 Nordeste 0 -- -- 72
2019-02-17 11:00:00 9.5 3 Este 7 Sudeste 0 -- -- 77
2019-02-17 10:00:00 8 0 Calma 4 Noroeste 0 -- -- 82
2019-02-17 09:00:00 6.7 2 Oeste 5 Sudoeste 0 -- -- 85
2019-02-17 08:00:00 5.5 0 Calma 5 Sudoeste 0 -- -- 90
2019-02-17 07:00:00 4.8 0 Calma 3 Oeste 0 -- -- 92
2019-02-17 06:00:00 4.1 0 Calma 2 Oeste 0 -- -- 92
2019-02-17 05:00:00 4.1 0 Calma 3 Oeste 0 -- -- 92
2019-02-17 04:00:00 4 0 Calma 5 Sudoeste 0 -- -- 92
2019-02-17 03:00:00 4.6 0 Calma 2 Oeste 0 -- -- 95
2019-02-17 02:00:00 4.7 0 Calma 2 Norte 0 -- -- 93
2019-02-17 01:00:00 5.1 0 Calma 3 Noroeste 0 -- -- 93
2019-02-17 00:00:00 4.8 0 Calma 2 Noroeste 0 -- -- 94
2019-02-16 23:00:00 4 0 Calma 2 Noroeste 0 -- -- 94
2019-02-16 22:00:00 4.7 0 Calma 2 Noroeste 0 -- -- 90
2019-02-16 21:00:00 6.4 0 Calma 2 Nordeste 0 -- -- 88
2019-02-16 20:00:00 8.2 0 Calma 10 Nordeste 0 -- -- 85
2019-02-16 19:00:00 9.7 3 Nordeste 10 Este 0 -- -- 79
2019-02-16 18:00:00 11.8 6 Este 15 Este 0 -- -- 68
2019-02-16 17:00:00 13.4 6 Este 23 Este 0 -- -- 60
2019-02-16 16:00:00 14.4 9 Este 21 Este 0 -- -- 56
2019-02-16 15:00:00 14.3 7 Nordeste 24 Sudeste 0 -- -- 57
2019-02-16 14:00:00 13.8 5 Nordeste 25 Sudeste 0 -- -- 62
2019-02-16 13:00:00 12.1 7 Este 19 Este 0 -- -- 68
2019-02-16 12:00:00 11 8 Este 21 Este 0 -- -- 69
2019-02-16 11:00:00 10.5 5 Este 13 Nordeste 0 -- -- 77
2019-02-16 10:00:00 8.8 4 Nordeste 12 Este 0 -- -- 81
2019-02-16 09:00:00 6.9 0 Calma 2 Sur 0 -- -- 85
2019-02-16 08:00:00 6.3 0 Calma 2 Noroeste 0 -- -- 87
2019-02-16 07:00:00 6.5 0 Calma 4 Noroeste 0 -- -- 86
2019-02-16 06:00:00 6.8 0 Calma 4 Sudeste 0 -- -- 84
2019-02-16 05:00:00 7.6 0 Calma 7 Sudeste 0 -- -- 80
2019-02-16 04:00:00 8.2 2 Nordeste 7 Este 0 -- -- 80
2019-02-16 03:00:00 8.3 2 Este 6 Sudeste 0 -- -- 83
2019-02-16 02:00:00 8.5 2 Este 6 Este 0 -- -- 85
2019-02-16 01:00:00 8.8 2 Este 6 Este 0 -- -- 85
2019-02-16 00:00:00 9.1 3 Nordeste 9 Nordeste 0 -- -- 85
2019-02-15 23:00:00 9.3 2 Nordeste 6 Este 0 -- -- 85
2019-02-15 22:00:00 9.3 0 Calma 7 Nordeste 0 -- -- 86
2019-02-15 21:00:00 9.3 2 Este 9 Nordeste 0 -- -- 86
2019-02-15 20:00:00 9.4 3 Nordeste 12 Este 0 -- -- 86
2019-02-15 19:00:00 10.4 3 Nordeste 14 Este 0 -- -- 81
2019-02-15 18:00:00 11.1 5 Este 18 Este 0 -- -- 76
2019-02-15 17:00:00 12.4 7 Este 18 Sudeste 0 -- -- 71
2019-02-15 16:00:00 13 5 Nordeste 15 Sudeste 0 -- -- 67
2019-02-15 15:00:00 12.9 7 Este 21 Este 0 -- -- 67
2019-02-15 14:00:00 12.7 7 Este 19 Este 0 -- -- 67
2019-02-15 13:00:00 12.3 7 Este 14 Este 0 -- -- 67
2019-02-15 12:00:00 11.7 4 Sudeste 15 Sudeste 0 -- -- 68
2019-02-15 11:00:00 9.6 2 Norte 6 Noroeste 0 -- -- 76
2019-02-15 10:00:00 7.8 0 Calma 3 Oeste 0 -- -- 82
2019-02-15 09:00:00 6.4 0 Calma 3 Noroeste 0 -- -- 89
2019-02-15 08:00:00 5.7 0 Calma 2 Noroeste 0 -- -- 92
2019-02-15 07:00:00 5.2 0 Calma 3 Oeste 0 -- -- 94
2019-02-15 06:00:00 4.3 0 Calma 2 Oeste 0 -- -- 97
2019-02-15 05:00:00 3 0 Calma 2 Noroeste 0 -- -- 95
2019-02-15 04:00:00 3.4 0 Calma 2 Noroeste 0 -- -- 94
2019-02-15 03:00:00 4.1 0 Calma 2 Noroeste 0 -- -- 92
2019-02-15 02:00:00 5.3 0 Calma 2 Noroeste 0 -- -- 89
2019-02-15 01:00:00 7.1 0 Calma 2 Noroeste 0 -- -- 84
2019-02-15 00:00:00 7.6 0 Calma 4 Noroeste 0 -- -- 84
2019-02-14 23:00:00 7.5 0 Calma 3 Sudoeste 0 -- -- 85
2019-02-14 22:00:00 7.3 0 Calma 4 Sudoeste 0 -- -- 85
2019-02-14 21:00:00 7.3 2 Oeste 4 Norte 0 -- -- 87
2019-02-14 20:00:00 8.1 0 Calma 7 Nordeste 0 -- -- 84
2019-02-14 19:00:00 9.4 3 Nordeste 14 Este 0 -- -- 76
2019-02-14 18:00:00 11.5 6 Este 15 Este 0 -- -- 67
2019-02-14 17:00:00 13 6 Este 17 Sudeste 0 -- -- 60
2019-02-14 16:00:00 14 8 Este 18 Sudeste 0 -- -- 56
2019-02-14 15:00:00 14.2 6 Este 16 Este 0 -- -- 54
2019-02-14 14:00:00 13.6 8 Nordeste 19 Sudeste 0 -- -- 58
2019-02-14 13:00:00 12 6 Este 17 Sudeste 0 -- -- 63
2019-02-14 12:00:00 12.1 8 Este 21 Sudeste 0 -- -- 64
2019-02-14 11:00:00 10.2 3 Este 8 Este 0 -- -- 70
2019-02-14 10:00:00 8.1 0 Calma 3 Sudoeste 0 -- -- 81
2019-02-14 09:00:00 6 0 Calma 4 Noroeste 0 -- -- 88
2019-02-14 08:00:00 5.3 0 Calma 5 Noroeste 0 -- -- 92
2019-02-14 07:00:00 5.1 0 Calma 4 Sudoeste 0 -- -- 93
2019-02-14 06:00:00 4.9 0 Calma 3 Noroeste 0 -- -- 95
2019-02-14 05:00:00 4.2 0 Calma 2 Norte 0 -- -- 95
2019-02-14 04:00:00 3.7 0 Calma 2 Noroeste 0 -- -- 96
2019-02-14 03:00:00 2.5 0 Calma 2 Noroeste 0 -- -- 95
2019-02-14 02:00:00 1.8 0 Calma -- -- 0 -- -- 95
2019-02-14 01:00:00 2.2 0 Calma 0 Calma 0 -- -- 92
2019-02-14 00:00:00 3 0 Calma 2 Sudoeste 0 -- -- 90
2019-02-13 23:00:00 3.9 0 Calma 0 Calma 0 -- -- 88
2019-02-13 22:00:00 5.2 0 Calma 3 Sudoeste 0 -- -- 85
2019-02-13 21:00:00 6.9 0 Calma 2 Noroeste 0 -- -- 79
2019-02-13 20:00:00 9.2 0 Calma 7 Nordeste 0 -- -- 73
2019-02-13 19:00:00 11.2 5 Este 11 Este 0 -- -- 66
2019-02-13 18:00:00 13.3 5 Nordeste 18 Nordeste 0 -- -- 61
2019-02-13 17:00:00 15.4 6 Nordeste 14 Este 0 -- -- 52
2019-02-13 16:00:00 16.3 5 Nordeste 15 Nordeste 0 -- -- 45
2019-02-13 15:00:00 16.3 6 Este 15 Sudeste 0 -- -- 34
2019-02-13 14:00:00 15.8 5 Nordeste 15 Sudeste 0 -- -- 35
2019-02-13 13:00:00 15 5 Este 13 Este 0 -- -- 39
2019-02-13 12:00:00 14.4 3 Sudeste 8 Sudoeste 0 -- -- 43
2019-02-13 11:00:00 11.1 4 Sudoeste 16 Sudoeste 0 -- -- 64
2019-02-13 10:00:00 7.5 6 Sudoeste 14 Sudoeste 0 -- -- 81
2019-02-13 09:00:00 3.1 5 Sudoeste 15 Sudoeste 0 -- -- 96
2019-02-13 08:00:00 2.3 3 Oeste 14 Sudoeste 0 -- -- 96
2019-02-13 07:00:00 2.5 3 Oeste 10 Sudoeste 0 -- -- 96
2019-02-13 06:00:00 3.1 0 Calma 10 Sudoeste 0 -- -- 94
2019-02-13 05:00:00 4.3 4 Oeste 13 Sudoeste 0 -- -- 92
2019-02-13 04:00:00 4.6 4 Oeste 13 Sudoeste 0 -- -- 91
2019-02-13 03:00:00 4.6 3 Oeste 7 Sudoeste 0 -- -- 92
2019-02-13 02:00:00 4.7 0 Calma 11 Sudoeste 0 -- -- 93
2019-02-13 01:00:00 4.4 0 Calma 4 Sudoeste 0 -- -- 94
2019-02-13 00:00:00 4.1 0 Calma 3 Sudoeste 0 -- -- 92
2019-02-12 23:00:00 4.7 0 Calma 2 Norte 0 -- -- 87
2019-02-12 22:00:00 5.5 0 Calma 3 Oeste 0 -- -- 87
2019-02-12 21:00:00 6.5 0 Calma 3 Noroeste 0 -- -- 83
2019-02-12 20:00:00 8.5 0 Calma 4 Este 0 -- -- 78
2019-02-12 19:00:00 10.7 0 Calma 9 Nordeste 0 -- -- 72
2019-02-12 18:00:00 13 4 Nordeste 14 Este 0 -- -- 61
2019-02-12 17:00:00 14.7 5 Este 15 Este 0 -- -- 51
2019-02-12 16:00:00 15.6 7 Este 16 Este 0 -- -- 48
2019-02-12 15:00:00 15.6 5 Este 15 Sudeste 0 -- -- 44
2019-02-12 14:00:00 15.1 6 Este 15 Sudeste 0 -- -- 45
2019-02-12 13:00:00 14.4 5 Este 13 Este 0 -- -- 48
2019-02-12 12:00:00 13.1 7 Este 13 Este 0 -- -- 57
2019-02-12 11:00:00 12.2 4 Sudeste 10 Sudeste 0 -- -- 59
2019-02-12 10:00:00 7.9 2 Sudoeste 8 Sudoeste 0 -- -- 80
2019-02-12 09:00:00 2.3 2 Noroeste 6 Noroeste 0 -- -- 97
2019-02-12 08:00:00 1.2 0 Calma 6 Noroeste 0 -- -- 96
2019-02-12 07:00:00 1.3 0 Calma 2 Sudoeste 0 -- -- 96
2019-02-12 06:00:00 1.8 0 Calma 4 Noroeste 0 -- -- 95
2019-02-12 05:00:00 2.1 2 Oeste 6 Noroeste 0 -- -- 95
2019-02-12 04:00:00 2.6 0 Calma 6 Noroeste 0 -- -- 94
2019-02-12 03:00:00 2.9 0 Calma 5 Noroeste 0 -- -- 93
2019-02-12 02:00:00 3.2 0 Calma 4 Oeste 0 -- -- 92
2019-02-12 01:00:00 3.9 0 Calma 5 Noroeste 0 -- -- 91
2019-02-12 00:00:00 4.6 0 Calma 6 Oeste 0 -- -- 89
2019-02-11 23:00:00 5.1 2 Oeste 5 Sudoeste 0 -- -- 87
2019-02-11 22:00:00 6.2 0 Calma 2 Noroeste 0 -- -- 85
2019-02-11 21:00:00 7.7 0 Calma 3 Norte 0 -- -- 81
2019-02-11 20:00:00 9.6 2 Noroeste 7 Este 0 -- -- 75
2019-02-11 19:00:00 10.9 2 Nordeste 10 Este 0 -- -- 70
2019-02-11 18:00:00 12.7 5 Nordeste 17 Este 0 -- -- 63
2019-02-11 17:00:00 14 8 Este 22 Este 0 -- -- 64
2019-02-11 16:00:00 15.5 8 Este 20 Este 0 -- -- 60
2019-02-11 15:00:00 15.8 10 Este 21 Este 0 -- -- 59
2019-02-11 14:00:00 17.5 5 Norte 19 Norte 0 -- -- 42
2019-02-11 13:00:00 19.4 5 Norte 15 Noroeste 0 -- -- 42
2019-02-11 12:00:00 17.2 3 Norte 13 Noroeste 0 -- -- 51
2019-02-11 11:00:00 16 3 Noroeste 11 Sudoeste 0 -- -- 58
2019-02-11 10:00:00 13.7 4 Sudoeste 12 Oeste 0 -- -- 72
2019-02-11 09:00:00 10 2 Oeste 7 Noroeste 0 -- -- 85
2019-02-11 08:00:00 9.3 0 Calma 12 Sudoeste 0 -- -- 85
2019-02-11 07:00:00 10.3 4 Sudoeste 12 Sudoeste 0 -- -- 81
2019-02-11 06:00:00 10.1 5 Oeste 14 Sudoeste 0 -- -- 81
2019-02-11 05:00:00 10 6 Oeste 11 Noroeste 0 -- -- 81
2019-02-11 04:00:00 10.3 0 Calma 8 Noroeste 0 -- -- 78
2019-02-11 03:00:00 10.5 3 Oeste 6 Oeste 0 -- -- 77
2019-02-11 02:00:00 10.5 0 Calma 9 Oeste 0 -- -- 77
2019-02-11 01:00:00 10 4 Oeste 7 Noroeste 0 -- -- 77
2019-02-11 00:00:00 9.9 2 Oeste 4 Oeste 0 -- -- 74
2019-02-10 23:00:00 10.8 2 Oeste 7 Oeste 0 -- -- 70
2019-02-10 22:00:00 11.5 4 Oeste 14 Noroeste 0 -- -- 66
2019-02-10 21:00:00 12.4 3 Oeste 14 Oeste 0 -- -- 62
2019-02-10 20:00:00 12.9 3 Oeste 14 Sudoeste 0 -- -- 58
2019-02-10 19:00:00 14.2 3 Oeste 14 Sudoeste 0 -- -- 53
2019-02-10 18:00:00 16 3 Oeste 17 Oeste 0 -- -- 46
2019-02-10 17:00:00 17.2 6 Oeste 21 Oeste 0 -- -- 44
2019-02-10 16:00:00 17 7 Noroeste 23 Oeste 0 -- -- 44
2019-02-10 15:00:00 17.4 7 Oeste 24 Oeste 0 -- -- 44
2019-02-10 14:00:00 17.7 8 Oeste 30 Noroeste 0 -- -- 43
2019-02-10 13:00:00 16 8 Oeste 24 Oeste 0 -- -- 47
2019-02-10 12:00:00 15 8 Oeste 25 Oeste 0 -- -- 51
2019-02-10 11:00:00 14.7 5 Oeste 28 Oeste 0 -- -- 50
2019-02-10 10:00:00 13.6 5 Oeste 27 Oeste 0 -- -- 53
2019-02-10 09:00:00 11.1 6 Oeste 32 Sudoeste 0 -- -- 46
2019-02-10 08:00:00 10.3 8 Oeste 22 Sudoeste 0 -- -- 41
2019-02-10 07:00:00 8 3 Oeste 7 Sudoeste 0 -- -- 48
2019-02-10 06:00:00 8 3 Oeste 10 Sudoeste 0 -- -- 49
2019-02-10 05:00:00 7.6 2 Oeste 14 Sudoeste 0 -- -- 58
2019-02-10 04:00:00 7.6 5 Oeste 10 Sudoeste 0 -- -- 59
2019-02-10 03:00:00 6 3 Sudoeste 8 Sudoeste 0 -- -- 76
2019-02-10 02:00:00 5 0 Calma 6 Sudoeste 0 -- -- 85
2019-02-10 01:00:00 5.9 0 Calma 2 Norte 0 -- -- 79
2019-02-10 00:00:00 6.5 0 Calma 3 Noroeste 0 -- -- 76
2019-02-09 23:00:00 7.5 0 Calma 5 Oeste 0 -- -- 73
2019-02-09 22:00:00 7.9 0 Calma 4 Oeste 0 -- -- 73
2019-02-09 21:00:00 9.6 0 Calma 4 Sudoeste 0 -- -- 66
2019-02-09 20:00:00 11.9 0 Calma 4 Sudeste 0 -- -- 65
2019-02-09 19:00:00 14.9 2 Este 14 Nordeste 0 -- -- 59
2019-02-09 18:00:00 18.1 6 Nordeste 16 Sudoeste 0 -- -- 48
2019-02-09 17:00:00 21.1 5 Sudoeste 21 Sudoeste 0 -- -- 27
2019-02-09 16:00:00 22.4 4 Oeste 15 Sudoeste 0 -- -- 25
2019-02-09 15:00:00 22.3 6 Sudoeste 17 Sudoeste 0 -- -- 25
2019-02-09 14:00:00 21.4 6 Noroeste 15 Oeste 0 -- -- 31
2019-02-09 13:00:00 20.5 6 Noroeste 18 Noroeste 0 -- -- 31
2019-02-09 12:00:00 18.7 5 Oeste 15 Noroeste 0 -- -- 38
2019-02-09 11:00:00 16.7 6 Oeste 18 Oeste 0 -- -- 45
2019-02-09 10:00:00 12.6 2 Oeste 10 Oeste 0 -- -- 59
2019-02-09 09:00:00 6.3 4 Sudoeste 10 Sudoeste 0 -- -- 76
2019-02-09 08:00:00 4.7 2 Oeste 7 Sudoeste 0 -- -- 78
2019-02-09 07:00:00 4.5 0 Calma 6 Oeste 0 -- -- 79
2019-02-09 06:00:00 3.8 0 Calma 4 Sudoeste 0 -- -- 81
2019-02-09 05:00:00 4.6 0 Calma 4 Sudoeste 0 -- -- 75
2019-02-09 04:00:00 5.2 0 Calma 3 Norte 0 -- -- 73
2019-02-09 03:00:00 4.8 0 Calma 3 Oeste 0 -- -- 76
2019-02-09 02:00:00 5.7 0 Calma 3 Sudoeste 0 -- -- 76
2019-02-09 01:00:00 6.7 0 Calma 4 Sudoeste 0 -- -- 78
2019-02-09 00:00:00 8.4 2 Oeste 8 Sudoeste 0 -- -- 76
2019-02-08 23:00:00 9.4 4 Sudoeste 9 Oeste 0 -- -- 69
2019-02-08 22:00:00 10.2 3 Oeste 7 Sudoeste 0 -- -- 64
2019-02-08 21:00:00 11.3 2 Sudoeste 4 Sudoeste 0 -- -- 60
2019-02-08 20:00:00 13.3 2 Oeste 7 Oeste 0 -- -- 53
2019-02-08 19:00:00 15.4 4 Oeste 9 Oeste 0 -- -- 48
2019-02-08 18:00:00 18.2 3 Oeste 20 Sudoeste 0 -- -- 39
2019-02-08 17:00:00 20.5 6 Oeste 26 Sudoeste 0 -- -- 34
2019-02-08 16:00:00 21.4 7 Sudoeste 22 Sudoeste 0 -- -- 33
2019-02-08 15:00:00 21.3 9 Sudoeste 29 Oeste 0 -- -- 32
2019-02-08 14:00:00 21.3 8 Oeste 28 Sudoeste 0 -- -- 33
2019-02-08 13:00:00 19.7 8 Sudoeste 24 Sudoeste 0 -- -- 35
2019-02-08 12:00:00 16.1 4 Este 10 Sudeste 0 -- -- 53
2019-02-08 11:00:00 14.8 5 Este 11 Sudeste 0 -- -- 55
2019-02-08 10:00:00 9.8 2 Sudoeste 9 Sudoeste 0 -- -- 66
2019-02-08 09:00:00 2.8 2 Noroeste 3 Noroeste 0 -- -- 91
2019-02-08 08:00:00 1.4 0 Calma 2 Norte 0 -- -- 92
2019-02-08 07:00:00 2.1 0 Calma 3 Oeste 0 -- -- 89
2019-02-08 06:00:00 2.4 0 Calma 3 Noroeste 0 -- -- 92
2019-02-08 05:00:00 2.2 0 Calma 2 Oeste 0 -- -- 90
2019-02-08 04:00:00 3.2 0 Calma 3 Noroeste 0 -- -- 87
2019-02-08 03:00:00 3.6 0 Calma 3 Sudoeste 0 -- -- 85
2019-02-08 02:00:00 4.2 0 Calma 3 Sudoeste 0 -- -- 82
2019-02-08 01:00:00 5 0 Calma 4 Noroeste 0 -- -- 78
2019-02-08 00:00:00 6.1 0 Calma 5 Sudoeste 0 -- -- 74
2019-02-07 23:00:00 7 0 Calma 2 Oeste 0 -- -- 71
2019-02-07 22:00:00 8.5 0 Calma 3 Oeste 0 -- -- 64
2019-02-07 21:00:00 10 0 Calma 4 Noroeste 0 -- -- 63
2019-02-07 20:00:00 12.2 0 Calma 6 Sur 0 -- -- 58
2019-02-07 19:00:00 15.5 2 Nordeste 10 Este 0 -- -- 49
2019-02-07 18:00:00 18.9 3 Nordeste 13 Sudeste 0 -- -- 37
2019-02-07 17:00:00 20.5 5 Este 15 Este 0 -- -- 37
2019-02-07 16:00:00 21.7 4 Nordeste 10 Norte 0 -- -- 34
2019-02-07 15:00:00 21.7 4 Sudeste 10 Sudoeste 0 -- -- 34
2019-02-07 14:00:00 21.1 3 Sur 14 Sudoeste 0 -- -- 36
2019-02-07 13:00:00 20.8 8 Sudoeste 16 Sudoeste 0 -- -- 38
2019-02-07 12:00:00 19.2 5 Oeste 17 Noroeste 0 -- -- 41
2019-02-07 11:00:00 16.6 5 Oeste 15 Oeste 0 -- -- 48
2019-02-07 10:00:00 12.8 3 Oeste 13 Sudoeste 0 -- -- 60
2019-02-07 09:00:00 7.4 3 Sudoeste 10 Sudoeste 0 -- -- 75
2019-02-07 08:00:00 6 0 Calma 4 Sudoeste 0 -- -- 80
2019-02-07 07:00:00 6.2 0 Calma 4 Oeste 0 -- -- 79
2019-02-07 06:00:00 6.8 0 Calma 4 Sudoeste 0 -- -- 76
2019-02-07 05:00:00 7.2 0 Calma 4 Oeste 0 -- -- 73
2019-02-07 04:00:00 8.2 0 Calma 13 Oeste 0 -- -- 69
2019-02-07 03:00:00 7.6 3 Oeste 9 Oeste 0 -- -- 72
2019-02-07 02:00:00 6.6 0 Calma 4 Sur 0 -- -- 75
2019-02-07 01:00:00 7.2 0 Calma 3 Oeste 0 -- -- 74
2019-02-07 00:00:00 7.8 0 Calma 10 Sudoeste 0 -- -- 73
2019-02-06 23:00:00 8.7 0 Calma 4 Sur 0 -- -- 70
2019-02-06 22:00:00 9.4 0 Calma 7 Oeste 0 -- -- 67
2019-02-06 21:00:00 10.6 0 Calma 3 Oeste 0 -- -- 61
2019-02-06 20:00:00 12.5 0 Calma 5 Norte 0 -- -- 56
2019-02-06 19:00:00 15.1 3 Norte 9 Oeste 0 -- -- 55
2019-02-06 18:00:00 19.1 0 Calma 10 Sur 0 -- -- 44
2019-02-06 17:00:00 21.8 3 Oeste 15 Sudoeste 0 -- -- 33
2019-02-06 16:00:00 22.1 4 Noroeste 13 Sudoeste 0 -- -- 33
2019-02-06 15:00:00 21.5 3 Nordeste 10 Este 0 -- -- 38
2019-02-06 14:00:00 21.7 4 Nordeste 16 Sudoeste 0 -- -- 38
2019-02-06 13:00:00 21.5 5 Oeste 15 Sudoeste 0 -- -- 37
2019-02-06 12:00:00 20 4 Oeste 14 Sudoeste 0 -- -- 40
2019-02-06 11:00:00 16.7 4 Oeste 15 Sudoeste 0 -- -- 48
2019-02-06 10:00:00 11.9 4 Oeste 12 Sudoeste 0 -- -- 61
2019-02-06 09:00:00 6.3 0 Calma 5 Noroeste 0 -- -- 80
2019-02-06 08:00:00 5.4 0 Calma 7 Norte 0 -- -- 80
2019-02-06 07:00:00 5.7 0 Calma 6 Oeste 0 -- -- 79
2019-02-06 06:00:00 5.8 0 Calma 6 Oeste 0 -- -- 79
2019-02-06 05:00:00 6 0 Calma 6 Oeste 0 -- -- 78
2019-02-06 04:00:00 6.1 0 Calma 7 Oeste 0 -- -- 78
2019-02-06 03:00:00 6.5 0 Calma 2 Oeste 0 -- -- 75
2019-02-06 02:00:00 6.8 0 Calma 4 Sudoeste 0 -- -- 75
2019-02-06 01:00:00 7.3 0 Calma 5 Noroeste 0 -- -- 72
2019-02-06 00:00:00 7.9 0 Calma 5 Oeste 0 -- -- 70
2019-02-05 23:00:00 8.6 0 Calma 10 Sudoeste 0 -- -- 68
2019-02-05 22:00:00 8.3 0 Calma 4 Oeste 0 -- -- 68
2019-02-05 21:00:00 9.3 0 Calma 5 Sudoeste 0 -- -- 65
2019-02-05 20:00:00 10.8 0 Calma 5 Oeste 0 -- -- 61
2019-02-05 19:00:00 13.4 2 Noroeste 7 Noroeste 0 -- -- 53
2019-02-05 18:00:00 16.9 2 Este 12 Este 0 -- -- 44
2019-02-05 17:00:00 18.5 4 Sudeste 12 Sudeste 0 -- -- 40
2019-02-05 16:00:00 19.5 4 Este 12 Este 0 -- -- 37
2019-02-05 15:00:00 19.3 4 Este 14 Sudeste 0 -- -- 37
2019-02-05 14:00:00 19.1 4 Sur 12 Este 0 -- -- 38
2019-02-05 13:00:00 18.3 6 Este 16 Sudoeste 0 -- -- 40
2019-02-05 12:00:00 17.8 5 Sudoeste 13 Sur 0 -- -- 40
2019-02-05 11:00:00 15.1 3 Sudoeste 8 Oeste 0 -- -- 44
2019-02-05 10:00:00 10.6 3 Sudoeste 13 Sudoeste 0 -- -- 53
2019-02-05 09:00:00 4.6 3 Oeste 8 Sudoeste 0 -- -- 65
2019-02-05 08:00:00 4 2 Oeste 10 Sudoeste 0 -- -- 65
2019-02-05 07:00:00 4.1 2 Noroeste 10 Sudoeste 0 -- -- 63
2019-02-05 06:00:00 4.1 2 Oeste 7 Oeste 0 -- -- 62
2019-02-05 05:00:00 4.1 0 Calma 5 Noroeste 0 -- -- 62
2019-02-05 04:00:00 4.4 0 Calma 4 Sudoeste 0 -- -- 60
2019-02-05 03:00:00 4.6 0 Calma 6 Oeste 0 -- -- 59
2019-02-05 02:00:00 4.7 0 Calma 10 Sudoeste 0 -- -- 59
2019-02-05 01:00:00 4.9 0 Calma 6 Sudoeste 0 -- -- 57
2019-02-05 00:00:00 5.6 2 Oeste 8 Sudoeste 0 -- -- 54
2019-02-04 23:00:00 6.2 0 Calma 6 Sudoeste 0 -- -- 51
2019-02-04 22:00:00 7.4 2 Norte 11 Sudoeste 0 -- -- 47
2019-02-04 21:00:00 7.4 2 Sudoeste 7 Oeste 0 -- -- 47
2019-02-04 20:00:00 7.1 0 Calma 2 Oeste 0 -- -- 46
2019-02-04 19:00:00 10.1 0 Calma 8 Noroeste 0 -- -- 38
2019-02-04 18:00:00 14.1 0 Calma 7 Este 0 -- -- 30
2019-02-04 17:00:00 16.2 4 Sudeste 8 Sur 0 -- -- 22
2019-02-04 16:00:00 16.9 3 Sudoeste 11 Oeste 0 -- -- 22
2019-02-04 15:00:00 16.5 6 Sudoeste 17 Sudoeste 0 -- -- 23
2019-02-04 14:00:00 15.6 5 Sudoeste 17 Sudoeste 0 -- -- 26
2019-02-04 13:00:00 14 6 Oeste 23 Sudoeste 0 -- -- 28
2019-02-04 12:00:00 12.3 9 Sudoeste 21 Sudoeste 0 -- -- 30
2019-02-04 11:00:00 10.2 4 Oeste 17 Oeste 0 -- -- 32
2019-02-04 10:00:00 6.8 5 Oeste 14 Sudoeste 0 -- -- 41
2019-02-04 09:00:00 0.9 3 Oeste 12 Sudoeste 0 -- -- 59
2019-02-04 08:00:00 -0.1 0 Calma 6 Sudoeste 0 -- -- 62
2019-02-04 07:00:00 0.4 0 Calma 10 Oeste 0 -- -- 61
2019-02-04 06:00:00 2.4 6 Sudoeste 17 Sudoeste 0 -- -- 53
2019-02-04 05:00:00 2.1 4 Oeste 15 Sudoeste 0 -- -- 56
2019-02-04 04:00:00 2 4 Sudoeste 17 Sudoeste 0 -- -- 55
2019-02-04 03:00:00 2.2 8 Sudoeste 19 Sudoeste 0 -- -- 55
2019-02-04 02:00:00 2.6 4 Sudoeste 12 Sudoeste 0 -- -- 54
2019-02-04 01:00:00 4.8 3 Sudoeste 15 Noroeste 0 -- -- 47
2019-02-04 00:00:00 5.6 6 Norte 19 Norte 0 -- -- 46
2019-02-03 23:00:00 5.5 3 Norte 20 Norte 0 -- -- 45
2019-02-03 22:00:00 5.8 2 Oeste 21 Norte 0 -- -- 41
2019-02-03 21:00:00 7.3 6 Norte 22 Nordeste 0 -- -- 35
2019-02-03 20:00:00 8 8 Norte 27 Norte 0 -- -- 33
2019-02-03 19:00:00 8.5 7 Norte 25 Norte 0 -- -- 32
2019-02-03 18:00:00 9.4 11 Nordeste 37 Norte 0 -- -- 29
2019-02-03 17:00:00 10.4 7 Norte 33 Nordeste 0 -- -- 28
2019-02-03 16:00:00 11.1 12 Nordeste 35 Norte 0 -- -- 28
2019-02-03 15:00:00 11.1 13 Norte 34 Norte 0 -- -- 26
2019-02-03 14:00:00 10.9 12 Norte 32 Norte 0 -- -- 31
2019-02-03 13:00:00 10.8 10 Norte 33 Norte 0 -- -- 30
2019-02-03 12:00:00 9.8 10 Norte 32 Norte 0 -- -- 33
2019-02-03 11:00:00 9 7 Noroeste 30 Noroeste 0 -- -- 36
2019-02-03 10:00:00 7 10 Noroeste 28 Noroeste 0 -- -- 40
2019-02-03 09:00:00 4.5 6 Noroeste 21 Noroeste 0 -- -- 44
2019-02-03 08:00:00 3.3 3 Noroeste 24 Noroeste 0 -- -- 55
2019-02-03 07:00:00 3.5 5 Noroeste 18 Noroeste 0 -- -- 54
2019-02-03 06:00:00 4.1 4 Noroeste 16 Norte 0 -- -- 55
2019-02-03 05:00:00 4.1 3 Noroeste 20 Noroeste 0 -- -- 55
2019-02-03 04:00:00 4.9 8 Noroeste 26 Noroeste 0 -- -- 51
2019-02-03 03:00:00 5.1 8 Noroeste 25 Noroeste 0 -- -- 50
2019-02-03 02:00:00 5.2 8 Noroeste 25 Noroeste 0 -- -- 48
2019-02-03 01:00:00 4.8 6 Noroeste 27 Oeste 0 -- -- 49
2019-02-03 00:00:00 5.1 4 Noroeste 19 Norte 0 -- -- 46
2019-02-02 23:00:00 4.7 4 Noroeste 14 Noroeste 0 -- -- 49
2019-02-02 22:00:00 5.8 4 Noroeste 17 Noroeste 0 -- -- 46
2019-02-02 21:00:00 7 4 Noroeste 22 Oeste 0 -- -- 39
2019-02-02 20:00:00 8.1 4 Noroeste 25 Noroeste 0 -- -- 33
2019-02-02 19:00:00 8.7 5 Norte 30 Noroeste 0 -- -- 32
2019-02-02 18:00:00 9.6 11 Norte 36 Norte 0 -- -- 32
2019-02-02 17:00:00 10.5 12 Norte 32 Norte 0 -- -- 33
2019-02-02 16:00:00 10.9 10 Noroeste 35 Noroeste 0 -- -- 35
2019-02-02 15:00:00 10.9 7 Noroeste 45 Noroeste 0 -- -- 43
2019-02-02 14:00:00 10.9 10 Noroeste 33 Noroeste 0 -- -- 42
2019-02-02 13:00:00 10.1 8 Noroeste 32 Oeste 0 -- -- 45
2019-02-02 12:00:00 9.4 9 Noroeste 30 Oeste 0 -- -- 45
2019-02-02 11:00:00 10.2 9 Noroeste 36 Oeste 0 -- -- 47
2019-02-02 10:00:00 9.8 11 Noroeste 32 Noroeste 0 -- -- 48
2019-02-02 09:00:00 7.4 4 Sudoeste 30 Oeste 0 -- -- 58
2019-02-02 08:00:00 7 11 Oeste 46 Norte 0 -- -- 59
2019-02-02 07:00:00 7 5 Oeste 43 Noroeste 0 -- -- 59
2019-02-02 06:00:00 7.4 18 Oeste 44 Noroeste 0 -- -- 57
2019-02-02 05:00:00 7.2 14 Noroeste 37 Noroeste 0 -- -- 59
2019-02-02 04:00:00 7.3 13 Oeste 50 Noroeste 0 -- -- 62
2019-02-02 03:00:00 7.6 17 Oeste 53 Oeste 0 -- -- 62
2019-02-02 02:00:00 8 19 Oeste 45 Noroeste 0 -- -- 59
2019-02-02 01:00:00 7.7 12 Oeste 35 Oeste 0 -- -- 62
2019-02-02 00:00:00 7.7 11 Oeste 45 Noroeste 0 -- -- 63
2019-02-01 23:00:00 8.1 11 Oeste 36 Oeste 0 -- -- 62
2019-02-01 22:00:00 8.6 17 Oeste 40 Noroeste 0 -- -- 61
2019-02-01 21:00:00 8.6 9 Oeste 40 Oeste 0 -- -- 67
2019-02-01 20:00:00 10.2 9 Oeste 24 Oeste 0 -- -- 59
2019-02-01 19:00:00 11 3 Oeste 36 Oeste 0 -- -- 51
2019-02-01 18:00:00 12.8 11 Noroeste 30 Oeste 0 -- -- 43
2019-02-01 17:00:00 14.4 12 Oeste 47 Oeste 0 -- -- 38
2019-02-01 16:00:00 15.9 10 Noroeste 42 Oeste 0 -- -- 37
2019-02-01 15:00:00 15.8 17 Noroeste 39 Oeste 0 -- -- 38
2019-02-01 14:00:00 16.3 15 Oeste 35 Oeste 0 -- -- 40
2019-02-01 13:00:00 15.9 12 Oeste 31 Noroeste 0 -- -- 50
2019-02-01 12:00:00 14.5 6 Oeste 24 Sudoeste 0 -- -- 68
2019-02-01 11:00:00 14.1 11 Noroeste 30 Oeste 0 -- -- 71
2019-02-01 10:00:00 12.5 5 Oeste 24 Sudoeste 0.6 -- -- 85
2019-02-01 09:00:00 12.2 6 Oeste 19 Sudoeste 0.4 -- -- 83
2019-02-01 08:00:00 14.2 4 Oeste 34 Oeste 0 -- -- 63
2019-02-01 07:00:00 14.5 6 Oeste 30 Sudoeste 0 -- -- 59
2019-02-01 06:00:00 14.2 5 Oeste 24 Oeste 0 -- -- 58
2019-02-01 05:00:00 14 5 Oeste 23 Oeste 0 -- -- 58
2019-02-01 04:00:00 12.8 5 Noroeste 15 Sudoeste 0 -- -- 64
2019-02-01 03:00:00 13.2 3 Oeste 18 Oeste 0 -- -- 64
2019-02-01 02:00:00 13.4 4 Oeste 14 Oeste 0 -- -- 62
2019-02-01 01:00:00 14.3 8 Oeste 36 Sudoeste 0 -- -- 59
2019-02-01 00:00:00 13.7 4 Oeste 25 Sudoeste 0 -- -- 62
2019-01-31 23:00:00 13.6 5 Oeste 25 Oeste 0 -- -- 64
2019-01-31 22:00:00 14 6 Oeste 24 Oeste 0 -- -- 63
2019-01-31 21:00:00 13.8 5 Oeste 22 Sudoeste 0 -- -- 64
2019-01-31 20:00:00 14.4 4 Oeste 23 Oeste 0 -- -- 61
2019-01-31 19:00:00 15 5 Oeste 27 Oeste 0 -- -- 60
2019-01-31 18:00:00 16.4 10 Oeste 32 Noroeste 0 -- -- 52
2019-01-31 17:00:00 16.7 11 Noroeste 39 Noroeste 0 -- -- 56
2019-01-31 16:00:00 18.5 12 Oeste 39 Oeste 0 -- -- 49
2019-01-31 15:00:00 19 15 Oeste 47 Oeste 0 -- -- 46
2019-01-31 14:00:00 18.2 13 Oeste 41 Noroeste 0 -- -- 48
2019-01-31 13:00:00 16.3 14 Oeste 42 Noroeste 0 -- -- 55
2019-01-31 12:00:00 15.8 10 Oeste 35 Noroeste 0 -- -- 59
2019-01-31 11:00:00 14.7 9 Oeste 36 Noroeste 0 -- -- 63
2019-01-31 10:00:00 14 8 Oeste 30 Oeste 0 -- -- 66
2019-01-31 09:00:00 13.4 8 Oeste 27 Sudoeste 0 -- -- 68
2019-01-31 08:00:00 13 6 Oeste 27 Oeste 0 -- -- 69
2019-01-31 07:00:00 12.3 8 Oeste 29 Oeste 0 -- -- 65
2019-01-31 06:00:00 12 4 Oeste 35 Sudoeste 0 -- -- 64
2019-01-31 05:00:00 11.4 17 Sudoeste 30 Sudoeste 0 -- -- 64
2019-01-31 04:00:00 11 6 Oeste 29 Sudoeste 0 -- -- 65
2019-01-31 03:00:00 11.1 4 Oeste 30 Oeste 0 -- -- 64
2019-01-31 02:00:00 11.3 7 Oeste 30 Oeste 0 -- -- 63
2019-01-31 01:00:00 11.2 6 Oeste 25 Oeste 0 -- -- 62
2019-01-31 00:00:00 10.5 5 Oeste 23 Noroeste 0 -- -- 61
2019-01-30 23:00:00 10.5 5 Sudoeste 26 Sudoeste 0 -- -- 58
2019-01-30 22:00:00 10.8 6 Oeste 36 Sudoeste 0 -- -- 51
2019-01-30 21:00:00 11.2 11 Sudoeste 31 Sudoeste 0 -- -- 46
2019-01-30 20:00:00 10.3 3 Oeste 15 Noroeste 0 -- -- 48
2019-01-30 19:00:00 10.7 0 Calma 12 Noroeste 0 -- -- 48
2019-01-30 18:00:00 12.3 6 Noroeste 22 Oeste 0 -- -- 43
2019-01-30 17:00:00 13.3 7 Noroeste 34 Noroeste 0 -- -- 41
2019-01-30 16:00:00 14.7 10 Noroeste 29 Noroeste 0 -- -- 34
2019-01-30 15:00:00 15.3 9 Oeste 37 Noroeste 0 -- -- 37
2019-01-30 14:00:00 15.8 7 Oeste 29 Noroeste 0 -- -- 37
2019-01-30 13:00:00 15.6 8 Oeste 27 Noroeste 0 -- -- 37
2019-01-30 12:00:00 15.2 5 Noroeste 18 Noroeste 0 -- -- 37
2019-01-30 11:00:00 13.9 5 Noroeste 20 Noroeste 0 -- -- 40
2019-01-30 10:00:00 11.8 6 Oeste 16 Noroeste 0 -- -- 49
2019-01-30 09:00:00 8.4 0 Calma 13 Oeste 0 -- -- 65
2019-01-30 08:00:00 8.9 3 Oeste 8 Noroeste 0 -- -- 68
2019-01-30 07:00:00 9.9 0 Calma 13 Norte 0 -- -- 63
2019-01-30 06:00:00 9.6 0 Calma 13 Noroeste 0 -- -- 65
2019-01-30 05:00:00 9.4 4 Oeste 12 Sudoeste 0 -- -- 67
2019-01-30 04:00:00 9.8 0 Calma 9 Sudoeste 0 -- -- 69
2019-01-30 03:00:00 11 4 Sudoeste 28 Oeste 0 -- -- 62
2019-01-30 02:00:00 11.6 3 Oeste 27 Noroeste 0 -- -- 54
2019-01-30 01:00:00 12.1 7 Noroeste 27 Noroeste 0 -- -- 57
2019-01-30 00:00:00 12.3 6 Noroeste 30 Noroeste 0 -- -- 60
2019-01-29 23:00:00 11.6 6 Oeste 22 Oeste 0 -- -- 64
2019-01-29 22:00:00 11.6 6 Oeste 35 Noroeste 0 -- -- 64
2019-01-29 21:00:00 11.7 8 Oeste 28 Noroeste 0 -- -- 62
2019-01-29 20:00:00 11.8 10 Oeste 30 Noroeste 0 -- -- 59
2019-01-29 19:00:00 12 9 Oeste 28 Noroeste 0 -- -- 57
2019-01-29 18:00:00 12.5 4 Sur 23 Noroeste 0 -- -- 55
2019-01-29 17:00:00 13.3 9 Noroeste 29 Noroeste 0 -- -- 53
2019-01-29 16:00:00 15.6 8 Oeste 29 Noroeste 0 -- -- 48
2019-01-29 15:00:00 14.4 9 Oeste 28 Oeste 0 -- -- 50
2019-01-29 14:00:00 13.9 11 Noroeste 26 Noroeste 0 -- -- 52
2019-01-29 13:00:00 13.3 7 Oeste 37 Sudoeste 0 -- -- 53
2019-01-29 12:00:00 14.7 10 Oeste 37 Sudoeste 0 -- -- 48
2019-01-29 11:00:00 11.6 10 Oeste 30 Sudoeste 0 -- -- 57
2019-01-29 10:00:00 9.6 5 Oeste 17 Sudoeste 0 -- -- 65
2019-01-29 09:00:00 5.4 0 Calma 5 Norte 0 -- -- 76
2019-01-29 08:00:00 6.4 2 Oeste 14 Sudoeste 0 -- -- 72
2019-01-29 07:00:00 7 7 Sudoeste 18 Sudoeste 0 -- -- 67
2019-01-29 06:00:00 6.9 6 Sudoeste 19 Sudoeste 0 -- -- 71
2019-01-29 05:00:00 6.9 2 Oeste 12 Sudoeste 0 -- -- 70
2019-01-29 04:00:00 7.3 2 Noroeste 19 Sudoeste 0 -- -- 69
2019-01-29 03:00:00 7.1 5 Oeste 18 Sudoeste 0 -- -- 71
2019-01-29 02:00:00 7.7 0 Calma 8 Sudoeste 0 -- -- 69
2019-01-29 01:00:00 9.2 3 Oeste 20 Noroeste 0 -- -- 64
2019-01-29 00:00:00 9.2 2 Oeste 12 Oeste 0 -- -- 63
2019-01-28 23:00:00 10.6 4 Oeste 17 Noroeste 0 -- -- 56
2019-01-28 22:00:00 12.5 6 Oeste 23 Oeste 0 -- -- 49
2019-01-28 21:00:00 13.3 7 Noroeste 33 Noroeste 0 -- -- 44
2019-01-28 20:00:00 13.1 6 Noroeste 21 Noroeste 0 -- -- 44
2019-01-28 19:00:00 13.2 5 Noroeste 22 Norte 0 -- -- 41
2019-01-28 18:00:00 13.9 4 Noroeste 21 Noroeste 0 -- -- 40
2019-01-28 17:00:00 14.8 8 Noroeste 28 Oeste 0 -- -- 38
2019-01-28 16:00:00 16.2 8 Noroeste 37 Nordeste 0 -- -- 34
2019-01-28 15:00:00 16.7 10 Noroeste 37 Norte 0 -- -- 34
2019-01-28 14:00:00 16.6 9 Noroeste 38 Noroeste 0 -- -- 34
2019-01-28 13:00:00 14.6 8 Noroeste 31 Noroeste 0 -- -- 38
2019-01-28 12:00:00 14.1 6 Oeste 27 Sudoeste 0 -- -- 40
2019-01-28 11:00:00 11.5 6 Oeste 23 Oeste 0 -- -- 46
2019-01-28 10:00:00 8.9 6 Oeste 26 Noroeste 0 -- -- 52
2019-01-28 09:00:00 6 7 Oeste 20 Sudoeste 0 -- -- 62
2019-01-28 08:00:00 5.3 3 Oeste 14 Noroeste 0 -- -- 63
2019-01-28 07:00:00 5.4 4 Oeste 19 Oeste 0 -- -- 62
2019-01-28 06:00:00 5 3 Oeste 14 Sudoeste 0 -- -- 62
2019-01-28 05:00:00 6.3 0 Calma 13 Oeste 0 -- -- 56
2019-01-28 04:00:00 7.1 0 Calma 10 Noroeste 0 -- -- 54
2019-01-28 03:00:00 7.3 0 Calma 12 Oeste 0 -- -- 52
2019-01-28 02:00:00 7.5 0 Calma 11 Noroeste 0 -- -- 52
2019-01-28 01:00:00 7.8 4 Oeste 9 Oeste 0 -- -- 50
2019-01-28 00:00:00 7.6 2 Sur 8 Sudoeste 0 -- -- 49
2019-01-27 23:00:00 9.2 0 Calma 12 Noroeste 0 -- -- 44
2019-01-27 22:00:00 10 4 Oeste 15 Sudoeste 0 -- -- 41
2019-01-27 21:00:00 10.8 3 Noroeste 17 Noroeste 0 -- -- 40
2019-01-27 20:00:00 11.5 4 Noroeste 19 Oeste 0 -- -- 39
2019-01-27 19:00:00 12.5 5 Noroeste 18 Norte 0 -- -- 37
2019-01-27 18:00:00 13.9 7 Noroeste 23 Noroeste 0 -- -- 35
2019-01-27 17:00:00 15.2 7 Noroeste 23 Oeste 0 -- -- 35
2019-01-27 16:00:00 16.3 6 Noroeste 30 Noroeste 0 -- -- 40
2019-01-27 15:00:00 15.8 7 Norte 37 Norte 0 -- -- 40
2019-01-27 14:00:00 17.1 8 Norte 28 Nordeste 0 -- -- 39
2019-01-27 13:00:00 16.5 5 Noroeste 22 Oeste 0 -- -- 44
2019-01-27 12:00:00 17.6 7 Noroeste 27 Sudoeste 0 -- -- 42
2019-01-27 11:00:00 16 4 Oeste 22 Sudoeste 0 -- -- 48
2019-01-27 10:00:00 12.9 7 Oeste 23 Sudoeste 0 -- -- 60
2019-01-27 09:00:00 11.6 7 Sudoeste 31 Sudoeste 0 -- -- 56
2019-01-27 08:00:00 11.9 13 Sudoeste 30 Sudoeste 0 -- -- 56
2019-01-27 07:00:00 11.6 10 Sudoeste 24 Sudoeste 0 -- -- 60
2019-01-27 06:00:00 11 4 Oeste 19 Sudoeste 0 -- -- 56
2019-01-27 05:00:00 12 6 Oeste 31 Sur 0 -- -- 48
2019-01-27 04:00:00 12.1 5 Sudoeste 19 Sudoeste 0 -- -- 48
2019-01-27 03:00:00 11.9 4 Oeste 18 Sudoeste 0 -- -- 51
2019-01-27 02:00:00 11.3 5 Oeste 18 Oeste 0 -- -- 51
2019-01-27 01:00:00 10.9 4 Noroeste 16 Oeste 0 -- -- 49
2019-01-27 00:00:00 11.3 4 Noroeste 25 Sudoeste 0 -- -- 46
2019-01-26 23:00:00 12 8 Oeste 24 Sudoeste 0 -- -- 43
2019-01-26 22:00:00 11.6 3 Oeste 20 Noroeste 0 -- -- 39
2019-01-26 21:00:00 12.1 8 Oeste 17 Oeste 0 -- -- 43
2019-01-26 20:00:00 12.9 7 Oeste 14 Noroeste 0 -- -- 44
2019-01-26 19:00:00 13.4 5 Oeste 13 Oeste 0 -- -- 46
2019-01-26 18:00:00 15.9 2 Oeste 17 Sudoeste 0 -- -- 42
2019-01-26 17:00:00 18.2 7 Sudoeste 25 Sudoeste 0 -- -- 35
2019-01-26 16:00:00 20.1 5 Oeste 24 Oeste 0 -- -- 32
2019-01-26 15:00:00 20.1 7 Oeste 23 Sudoeste 0 -- -- 34
2019-01-26 14:00:00 19.3 8 Oeste 22 Oeste 0 -- -- 37
2019-01-26 13:00:00 18.5 8 Oeste 24 Oeste 0 -- -- 40
2019-01-26 12:00:00 17.7 6 Oeste 19 Noroeste 0 -- -- 43
2019-01-26 11:00:00 13.5 5 Sudoeste 18 Sudoeste 0 -- -- 53
2019-01-26 10:00:00 9.2 5 Oeste 23 Sudoeste 0 -- -- 64
2019-01-26 09:00:00 5.5 5 Sudoeste 9 Sudoeste 0 -- -- 77
2019-01-26 08:00:00 5.1 4 Oeste 14 Sudoeste 0 -- -- 78
2019-01-26 07:00:00 5.5 4 Sudoeste 14 Oeste 0 -- -- 77
2019-01-26 06:00:00 5.1 3 Oeste 13 Oeste 0 -- -- 79
2019-01-26 05:00:00 4.2 0 Calma 8 Sudoeste 0 -- -- 82
2019-01-26 04:00:00 4.6 0 Calma 4 Noroeste 0 -- -- 79
2019-01-26 03:00:00 5.5 0 Calma 5 Oeste 0 -- -- 78
2019-01-26 02:00:00 5.9 0 Calma 4 Sudoeste 0 -- -- 77
2019-01-26 01:00:00 6.4 0 Calma 8 Sur 0 -- -- 76
2019-01-26 00:00:00 6.4 0 Calma 3 Norte 0 -- -- 75
2019-01-25 23:00:00 7.8 0 Calma 7 Oeste 0 -- -- 70
2019-01-25 22:00:00 8 0 Calma 7 Sudoeste 0 -- -- 69
2019-01-25 21:00:00 9.2 0 Calma 9 Oeste 0 -- -- 66
2019-01-25 20:00:00 11.5 2 Noroeste 9 Oeste 0 -- -- 58
2019-01-25 19:00:00 13.7 4 Noroeste 18 Nordeste 0 -- -- 52
2019-01-25 18:00:00 15.9 2 Norte 13 Norte 0 -- -- 46
2019-01-25 17:00:00 17 2 Norte 19 Nordeste 0 -- -- 43
2019-01-25 16:00:00 17.4 5 Norte 20 Este 0 -- -- 42
2019-01-25 15:00:00 18.6 5 Norte 23 Nordeste 0 -- -- 40
2019-01-25 14:00:00 18.6 7 Nordeste 19 Oeste 0 -- -- 40
2019-01-25 13:00:00 18.3 7 Nordeste 19 Norte 0 -- -- 42
2019-01-25 12:00:00 17 6 Norte 22 Nordeste 0 -- -- 46
2019-01-25 11:00:00 15.7 6 Nordeste 16 Norte 0 -- -- 49
2019-01-25 10:00:00 12 0 Calma 22 Noroeste 0 -- -- 62
2019-01-25 09:00:00 5.5 0 Calma 6 Sudoeste 0 -- -- 85
2019-01-25 08:00:00 4.7 0 Calma 10 Sudoeste 0 -- -- 86
2019-01-25 07:00:00 5.5 0 Calma 6 Sudoeste 0 -- -- 81
2019-01-25 06:00:00 7.5 0 Calma 9 Noroeste 0 -- -- 73
2019-01-25 05:00:00 9.2 3 Noroeste 20 Sudeste 0 -- -- 67
2019-01-25 04:00:00 8 2 Oeste 10 Nordeste 0 -- -- 70
2019-01-25 03:00:00 8.9 3 Sudoeste 15 Norte 0 -- -- 64
2019-01-25 02:00:00 8.8 0 Calma 13 Norte 0 -- -- 64
2019-01-25 01:00:00 11.5 5 Norte 22 Norte 0 -- -- 54
2019-01-25 00:00:00 11.4 3 Norte 32 Noroeste 0 -- -- 54
2019-01-24 23:00:00 11.6 8 Norte 26 Norte 0 -- -- 52
2019-01-24 22:00:00 11.9 9 Norte 26 Norte 0 -- -- 51
2019-01-24 21:00:00 11.8 8 Norte 20 Norte 0 -- -- 51
2019-01-24 20:00:00 11.8 5 Norte 27 Norte 0 -- -- 51
2019-01-24 19:00:00 10.7 4 Este 17 Sudeste 0 -- -- 53
2019-01-24 18:00:00 11.4 6 Sudeste 18 Sudeste 0 -- -- 49
2019-01-24 17:00:00 11.9 5 Este 15 Sudeste 0 -- -- 48
2019-01-24 16:00:00 12.6 5 Este 17 Sudeste 0 -- -- 45
2019-01-24 15:00:00 13.4 8 Este 21 Nordeste 0 -- -- 43
2019-01-24 14:00:00 13.7 9 Este 22 Nordeste 0 -- -- 43
2019-01-24 13:00:00 13.5 6 Nordeste 19 Nordeste 0 -- -- 45
2019-01-24 12:00:00 13.4 4 Este 15 Sudeste 0 -- -- 48
2019-01-24 11:00:00 11.3 4 Nordeste 18 Este 0 -- -- 55
2019-01-24 10:00:00 11.6 6 Este 16 Este 0 -- -- 59
2019-01-24 09:00:00 11.7 3 Noroeste 22 Noroeste 0 -- -- 59
2019-01-24 08:00:00 11.8 4 Noroeste 21 Nordeste 0 -- -- 58
2019-01-24 07:00:00 12 5 Noroeste 23 Noroeste 0 -- -- 57
2019-01-24 06:00:00 11.8 6 Noroeste 28 Oeste 0 -- -- 57
2019-01-24 05:00:00 12.2 7 Noroeste 31 Oeste 0 -- -- 56
2019-01-24 04:00:00 13 10 Noroeste 31 Oeste 0 -- -- 54
2019-01-24 03:00:00 13.2 9 Noroeste 33 Noroeste 0 -- -- 53
2019-01-24 02:00:00 12.9 9 Noroeste 46 Noroeste 0 -- -- 56
2019-01-24 01:00:00 13.9 12 Noroeste 33 Nordeste 0 -- -- 53
2019-01-24 00:00:00 13.3 11 Noroeste 33 Noroeste 0 -- -- 56